Time;durP1;ratioP1;P1;durP2;ratioP2;P2;SDS_P1;SDS_P2;PMS_P1;PMS_P2;Temp;Humidity;BMP_temperature;BMP_pressure;BME280_temperature;BME280_humidity;BME280_pressure;Samples;Min_cycle;Max_cycle;Signal;HPM_P1;HPM_P2
2022/08/13 00:01:45;;;;;;;3.63;1.60;;;20.00;1.00;;;;;;7361102;19;20841;-68
2022/08/13 00:04:17;;;;;;;2.80;1.40;;;19.80;1.00;;;;;;7360994;19;20011;-68
2022/08/13 00:07:07;;;;;;;2.20;1.52;;;19.80;1.00;;;;;;7359436;19;20014;-68
2022/08/13 00:09:43;;;;;;;1.77;1.52;;;19.60;1.00;;;;;;7361605;19;20026;-68
2022/08/13 00:15:01;;;;;;;1.52;1.40;;;19.50;1.00;;;;;;7361096;19;20014;-68
2022/08/13 00:17:34;;;;;;;5.05;2.35;;;19.60;1.00;;;;;;7359328;19;20090;-67
2022/08/13 00:20:27;;;;;;;2.70;1.60;;;19.60;1.00;;;;;;7360949;19;20052;-68
2022/08/13 00:22:58;;;;;;;4.38;1.50;;;19.70;1.00;;;;;;7382385;19;20434;-67
2022/08/13 00:25:33;;;;;;;3.05;1.50;;;19.60;1.00;;;;;;7362949;19;20018;-68
2022/08/13 00:28:17;;;;;;;7.13;1.77;;;19.70;1.00;;;;;;7359229;19;20054;-68
2022/08/13 00:30:49;;;;;;;2.50;1.40;;;19.90;1.00;;;;;;7360916;19;20086;-69
2022/08/13 00:33:24;;;;;;;2.38;1.50;;;19.90;1.00;;;;;;7363705;19;20009;-67
2022/08/13 00:36:16;;;;;;;4.00;1.90;;;19.80;1.00;;;;;;7362537;19;20010;-68
2022/08/13 00:39:05;;;;;;;3.38;1.90;;;19.90;1.00;;;;;;7360145;19;20501;-68
2022/08/13 00:41:40;;;;;;;2.30;1.80;;;19.80;1.00;;;;;;7360586;19;20083;-68
2022/08/13 00:44:31;;;;;;;2.40;1.30;;;19.80;1.00;;;;;;7360456;19;20006;-69
2022/08/13 00:49:48;;;;;;;1.98;1.40;;;19.70;1.00;;;;;;7361100;19;20102;-68
2022/08/13 00:52:30;;;;;;;1.65;1.52;;;19.70;1.00;;;;;;7366368;19;20017;-68
2022/08/13 00:55:05;;;;;;;2.80;1.60;;;19.60;1.00;;;;;;7367155;19;20090;-69
2022/08/13 00:57:56;;;;;;;4.43;1.45;;;19.60;1.00;;;;;;7365091;19;20014;-69
2022/08/13 01:00:28;;;;;;;2.80;1.40;;;19.50;1.00;;;;;;7367402;19;20018;-67
2022/08/13 01:02:59;;;;;;;2.63;1.80;;;19.50;1.00;;;;;;7366853;19;20022;-67
2022/08/13 01:05:45;;;;;;;3.38;1.70;;;19.40;1.00;;;;;;7366736;19;20026;-67
2022/08/13 01:08:19;;;;;;;2.17;1.60;;;19.30;1.00;;;;;;7364758;19;20021;-68
2022/08/13 01:10:58;;;;;;;1.92;1.55;;;19.30;1.00;;;;;;7387927;19;20512;-67
2022/08/13 01:13:33;;;;;;;3.95;1.70;;;19.20;1.00;;;;;;7366339;19;20018;-68
2022/08/13 01:16:06;;;;;;;2.55;1.40;;;19.10;1.00;;;;;;7365310;19;20010;-68
2022/08/13 01:18:39;;;;;;;;;;;19.00;1.00;;;;;;7367378;19;20019;-68
2022/08/13 01:21:13;;;;;;;2.15;1.55;;;18.90;1.00;;;;;;7367183;19;19944;-67
2022/08/13 01:23:48;;;;;;;1.73;1.50;;;18.80;1.00;;;;;;7369134;19;20010;-68
2022/08/13 01:26:33;;;;;;;2.10;1.52;;;18.80;1.00;;;;;;7365218;19;20026;-67
2022/08/13 01:29:16;;;;;;;3.25;1.60;;;18.90;1.00;;;;;;7368231;19;20469;-68
2022/08/13 01:31:51;;;;;;;1.90;1.48;;;18.80;1.00;;;;;;7390664;19;20494;-68
2022/08/13 01:34:22;;;;;;;2.00;1.60;;;18.60;1.00;;;;;;7368503;19;20423;-69
2022/08/13 01:36:56;;;;;;;1.70;1.60;;;18.40;1.00;;;;;;7366594;19;20018;-69
2022/08/13 01:39:30;;;;;;;2.47;1.42;;;18.40;1.00;;;;;;7365797;19;20041;-69
2022/08/13 01:42:17;;;;;;;3.38;1.65;;;18.30;1.00;;;;;;7366574;19;20018;-69
2022/08/13 01:44:52;;;;;;;2.92;1.90;;;18.30;1.00;;;;;;7364783;19;20018;-69
2022/08/13 01:50:33;;;;;;;1.70;1.50;;;18.20;1.00;;;;;;7367842;19;20014;-68
2022/08/13 01:53:07;;;;;;;3.45;1.73;;;18.20;1.00;;;;;;7387309;19;20511;-67
2022/08/13 01:55:43;;;;;;;3.75;1.60;;;18.10;1.00;;;;;;7364944;19;20950;-68
2022/08/13 01:58:34;;;;;;;2.13;1.77;;;18.00;1.00;;;;;;7364863;19;20410;-68
2022/08/13 02:01:27;;;;;;;3.00;1.90;;;17.90;1.00;;;;;;7364603;19;20562;-69
2022/08/13 02:04:13;;;;;;;3.00;1.58;;;17.90;1.00;;;;;;7363568;19;20023;-69
2022/08/13 02:06:54;;;;;;;2.50;1.50;;;17.80;1.00;;;;;;7363009;19;20052;-66
2022/08/13 02:09:26;;;;;;;2.10;1.60;;;17.60;1.00;;;;;;7364536;19;20015;-68
2022/08/13 02:12:18;;;;;;;2.42;1.50;;;17.60;1.00;;;;;;7365701;19;20014;-69
2022/08/13 02:15:05;;;;;;;2.45;1.65;;;17.50;1.00;;;;;;7364818;19;20014;-69
2022/08/13 02:17:41;;;;;;;4.10;1.80;;;17.60;1.00;;;;;;7365151;19;20525;-69
2022/08/13 02:20:32;;;;;;;1.92;1.73;;;17.40;1.00;;;;;;7364009;19;20025;-68
2022/08/13 02:23:06;;;;;;;4.32;2.22;;;17.40;1.00;;;;;;7385984;19;20010;-68
2022/08/13 02:25:39;;;;;;;4.47;2.00;;;17.30;1.00;;;;;;7367661;19;20010;-67
2022/08/13 02:28:14;;;;;;;3.45;2.10;;;17.30;1.00;;;;;;7363624;19;20521;-67
2022/08/13 02:30:52;;;;;;;2.85;1.85;;;17.30;1.00;;;;;;7364682;19;20011;-67
2022/08/13 02:33:24;;;;;;;4.03;2.10;;;17.30;1.00;;;;;;7367243;19;20010;-68
2022/08/13 02:35:54;;;;;;;3.33;2.00;;;17.30;1.00;;;;;;7366689;19;20082;-68
2022/08/13 02:38:25;;;;;;;4.72;2.40;;;17.20;1.00;;;;;;7363762;19;20018;-68
2022/08/13 02:43:48;;;;;;;10.25;3.72;;;17.10;1.00;;;;;;7363832;19;20042;-67
2022/08/13 02:46:31;;;;;;;5.55;3.20;;;17.10;1.00;;;;;;7362347;19;20488;-67
2022/08/13 02:49:01;;;;;;;3.97;2.15;;;17.00;1.00;;;;;;7362605;19;20011;-68
2022/08/13 02:51:33;;;;;;;3.95;2.10;;;17.00;1.00;;;;;;7364174;19;20019;-68
2022/08/13 02:54:23;;;;;;;2.88;2.20;;;17.00;1.00;;;;;;7364433;19;20436;-68
2022/08/13 02:56:56;;;;;;;3.05;2.17;;;16.90;1.00;;;;;;7362110;19;20011;-67
2022/08/13 02:59:29;;;;;;;4.13;3.00;;;16.90;1.00;;;;;;7364096;19;20022;-68
2022/08/13 03:02:20;;;;;;;4.97;2.55;;;16.90;1.00;;;;;;7363428;19;20362;-69
2022/08/13 03:04:50;;;;;;;4.60;2.13;;;16.90;1.00;;;;;;7384625;19;20048;-68
2022/08/13 03:07:20;;;;;;;2.67;2.33;;;16.90;1.00;;;;;;7360633;19;20477;-68
2022/08/13 03:09:50;;;;;;;4.07;2.50;;;16.80;1.00;;;;;;7362774;19;20034;-68
2022/08/13 03:12:23;;;;;;;7.82;2.70;;;16.70;1.00;;;;;;7363765;19;20011;-68
2022/08/13 03:15:04;;;;;;;3.33;2.38;;;16.80;1.00;;;;;;7363971;19;20026;-68
2022/08/13 03:17:34;;;;;;;3.83;2.42;;;16.70;1.00;;;;;;7360904;19;20499;-68
2022/08/13 03:20:03;;;;;;;3.60;2.05;;;16.70;1.00;;;;;;7384669;19;20007;-68
2022/08/13 03:22:52;;;;;;;7.00;2.30;;;16.60;1.00;;;;;;7365816;19;20018;-68
2022/08/13 03:25:25;;;;;;;2.60;2.00;;;16.80;1.00;;;;;;7362595;19;20526;-68
2022/08/13 03:28:01;;;;;;;2.92;2.10;;;16.70;1.00;;;;;;7361624;19;20035;-68
2022/08/13 03:30:34;;;;;;;6.60;2.20;;;16.70;1.00;;;;;;7362590;19;20086;-68
2022/08/13 03:33:08;;;;;;;5.28;2.47;;;16.70;1.00;;;;;;7365317;19;20529;-68
2022/08/13 03:35:47;;;;;;;7.88;2.25;;;16.60;1.00;;;;;;7365403;19;20018;-68
2022/08/13 03:38:18;;;;;;;2.88;2.00;;;16.60;1.00;;;;;;7366214;19;20031;-68
2022/08/13 03:41:11;;;;;;;5.35;2.25;;;16.70;1.00;;;;;;7383454;19;20086;-68
2022/08/13 03:43:44;;;;;;;;;;;16.60;1.00;;;;;;7362379;19;20011;-68
2022/08/13 03:46:29;;;;;;;2.53;1.77;;;16.70;1.00;;;;;;7361698;19;19923;-68
2022/08/13 03:48:59;;;;;;;2.83;2.00;;;16.70;1.00;;;;;;7360763;19;20506;-68
2022/08/13 03:51:29;;;;;;;4.38;2.20;;;16.60;1.00;;;;;;7361756;19;20022;-68
2022/08/13 03:54:16;;;;;;;2.05;1.85;;;16.60;1.00;;;;;;7362272;19;20006;-68
2022/08/13 03:56:46;;;;;;;2.92;2.10;;;16.60;1.00;;;;;;7360567;19;20010;-67
2022/08/13 03:59:31;;;;;;;3.17;2.00;;;16.70;1.00;;;;;;7361539;19;20022;-68
2022/08/13 04:02:19;;;;;;;2.92;2.05;;;16.70;1.00;;;;;;7361207;19;20018;-68
2022/08/13 04:04:50;;;;;;;2.93;2.30;;;16.60;1.00;;;;;;7382920;19;20018;-68
2022/08/13 04:07:22;;;;;;;2.35;2.10;;;16.60;1.00;;;;;;7359059;19;20259;-67
2022/08/13 04:10:00;;;;;;;4.25;2.55;;;16.60;1.00;;;;;;7361308;19;20011;-68
2022/08/13 04:12:34;;;;;;;5.15;2.53;;;16.60;1.00;;;;;;7361912;19;20015;-68
2022/08/13 04:15:09;;;;;;;3.25;2.30;;;16.60;1.00;;;;;;7361313;19;20021;-68
2022/08/13 04:17:41;;;;;;;4.85;2.58;;;16.50;1.00;;;;;;7361231;19;20166;-68
2022/08/13 04:20:14;;;;;;;3.78;2.78;;;16.50;1.00;;;;;;7378190;19;20494;-69
2022/08/13 04:22:44;;;;;;;4.13;2.70;;;16.50;1.00;;;;;;7382777;19;20081;-67
2022/08/13 04:25:15;;;;;;;4.38;2.97;;;16.40;1.00;;;;;;7360705;19;20019;-68
2022/08/13 04:27:58;;;;;;;3.97;2.30;;;16.40;1.00;;;;;;7367715;19;20482;-67
2022/08/13 04:30:41;;;;;;;2.90;2.20;;;16.40;1.00;;;;;;7366530;19;20826;-68
2022/08/13 04:33:18;;;;;;;3.70;2.60;;;17.10;1.00;;;;;;7371364;19;20172;-68
2022/08/13 04:35:51;;;;;;;4.28;2.50;;;17.80;1.00;;;;;;7369891;19;20046;-68
2022/08/13 04:38:27;;;;;;;4.20;2.55;;;18.10;1.00;;;;;;7367826;19;20037;-67
2022/08/13 04:40:57;;;;;;;4.18;2.75;;;18.50;1.00;;;;;;7389504;19;20486;-67
2022/08/13 04:43:33;;;;;;;4.00;2.28;;;19.00;1.00;;;;;;7367246;19;20015;-67
2022/08/13 04:46:07;;;;;;;3.35;2.22;;;19.50;1.00;;;;;;7366433;19;20014;-67
2022/08/13 04:48:40;;;;;;;3.50;2.40;;;19.30;1.00;;;;;;7367866;19;20011;-68
2022/08/13 04:51:15;;;;;;;2.63;2.15;;;19.90;1.00;;;;;;7370449;19;20668;-68
2022/08/13 04:53:45;;;;;;;3.35;2.08;;;19.80;1.00;;;;;;7368084;19;20010;-68
2022/08/13 04:56:20;;;;;;;5.75;2.17;;;20.90;1.00;;;;;;7366092;19;20015;-68
2022/08/13 04:58:50;;;;;;;5.15;2.35;;;21.80;1.00;;;;;;7388446;19;20014;-67
2022/08/13 05:01:21;;;;;;;3.90;2.40;;;21.40;1.00;;;;;;7366886;19;20025;-68
2022/08/13 05:04:13;;;;;;;2.05;1.95;;;21.40;1.00;;;;;;7366900;19;20017;-68
2022/08/13 05:06:52;;;;;;;2.67;2.10;;;22.30;1.00;;;;;;7366991;19;20011;-68
2022/08/13 05:09:23;;;;;;;2.47;1.90;;;22.50;1.00;;;;;;7368655;19;20014;-68
2022/08/13 05:12:00;;;;;;;2.65;2.03;;;22.30;1.00;;;;;;7367747;19;20022;-67
2022/08/13 05:14:35;;;;;;;2.58;2.08;;;22.50;1.00;;;;;;7370111;19;20083;-68
2022/08/13 05:17:07;;;;;;;5.20;2.38;;;21.60;1.00;;;;;;7390164;19;20010;-67
2022/08/13 05:19:46;;;;;;;3.20;2.30;;;21.30;1.00;;;;;;7366383;19;20017;-68
2022/08/13 05:22:19;;;;;;;11.20;2.67;;;20.70;1.00;;;;;;7365956;19;20031;-68
2022/08/13 05:24:59;;;;;;;3.13;2.30;;;20.00;1.00;;;;;;7365972;19;20018;-68
2022/08/13 05:27:49;;;;;;;2.58;2.25;;;19.80;1.00;;;;;;7365122;19;20010;-68
2022/08/13 05:30:20;;;;;;;3.10;2.17;;;21.30;1.00;;;;;;7366228;19;20010;-68
2022/08/13 05:33:00;;;;;;;2.55;2.25;;;21.50;1.00;;;;;;7368677;19;20051;-68
2022/08/13 05:35:48;;;;;;;4.47;2.13;;;21.70;1.00;;;;;;7368838;19;20014;-68
2022/08/13 05:38:39;;;;;;;2.65;2.03;;;20.10;1.00;;;;;;7364878;19;20374;-68
2022/08/13 05:41:14;;;;;;;2.30;2.10;;;19.90;1.00;;;;;;7387977;19;20018;-68
2022/08/13 05:43:45;;;;;;;2.60;2.10;;;20.60;1.00;;;;;;7365708;19;20019;-69
2022/08/13 05:46:24;;;;;;;3.10;2.13;;;21.80;1.00;;;;;;7364411;19;20040;-68
2022/08/13 05:48:59;;;;;;;2.15;1.95;;;22.90;1.00;;;;;;7365485;19;20517;-68
2022/08/13 05:51:32;;;;;;;2.40;2.17;;;22.00;1.00;;;;;;7364842;19;20017;-68
2022/08/13 05:54:22;;;;;;;4.20;2.22;;;19.60;1.00;;;;;;7365990;19;20018;-68
2022/08/13 05:57:12;;;;;;;4.00;2.15;;;19.10;1.00;;;;;;7364203;19;20006;-68
2022/08/13 06:05:09;;;;;;;3.85;2.00;;;18.80;1.00;;;;;;7391235;19;20030;-68
2022/08/13 06:07:46;;;;;;;5.78;2.45;;;18.90;1.00;;;;;;7362307;19;20030;-67
2022/08/13 06:10:19;;;;;;;2.55;1.55;;;18.80;1.00;;;;;;7366342;19;20006;-67
2022/08/13 06:12:50;;;;;;;5.18;2.10;;;18.80;1.00;;;;;;7365297;19;20046;-67
2022/08/13 06:15:28;;;;;;;4.07;2.13;;;19.20;1.00;;;;;;7365162;19;20018;-68
2022/08/13 06:18:19;;;;;;;5.43;1.73;;;19.40;1.00;;;;;;7364366;19;20015;-66
2022/08/13 06:21:02;;;;;;;2.30;2.00;;;19.60;1.00;;;;;;7364284;19;20018;-67
2022/08/13 06:23:49;;;;;;;2.80;1.73;;;19.70;1.00;;;;;;7363990;19;20122;-67
2022/08/13 06:26:21;;;;;;;2.38;1.83;;;19.60;1.00;;;;;;7362752;19;20485;-68
2022/08/13 06:28:52;;;;;;;5.18;2.10;;;19.60;1.00;;;;;;7385610;19;20093;-68
2022/08/13 06:31:30;;;;;;;2.58;1.98;;;19.90;1.00;;;;;;7362767;19;20086;-68
2022/08/13 06:34:15;;;;;;;1.67;1.58;;;19.90;1.00;;;;;;7366450;19;20034;-67
2022/08/13 06:37:05;;;;;;;7.25;1.90;;;20.00;1.00;;;;;;7365053;19;20367;-68
2022/08/13 06:39:43;;;;;;;2.97;1.90;;;20.10;1.00;;;;;;7362949;19;20021;-68
2022/08/13 06:42:29;;;;;;;3.67;2.00;;;20.30;1.00;;;;;;7364842;19;20104;-67
2022/08/13 06:45:00;;;;;;;3.50;2.17;;;20.50;1.00;;;;;;7363435;19;20024;-67
2022/08/13 06:47:33;;;;;;;4.38;1.80;;;20.50;1.00;;;;;;7363743;19;20484;-67
2022/08/13 06:50:12;;;;;;;5.18;1.80;;;20.60;1.00;;;;;;7385008;19;20107;-68
2022/08/13 06:52:43;;;;;;;2.88;1.88;;;20.60;1.00;;;;;;7363091;19;20017;-67
2022/08/13 06:55:38;;;;;;;4.03;2.00;;;20.90;1.00;;;;;;7362499;19;20023;-69
2022/08/13 06:58:30;;;;;;;2.60;2.20;;;20.70;1.00;;;;;;7362694;19;20010;-68
2022/08/13 07:01:01;;;;;;;3.63;2.03;;;20.70;1.00;;;;;;7362111;19;20397;-68
2022/08/13 07:03:35;;;;;;;3.22;1.98;;;21.00;1.00;;;;;;7363249;19;20014;-68
2022/08/13 07:06:27;;;;;;;3.55;1.67;;;21.20;1.00;;;;;;7362942;19;20072;-67
2022/08/13 07:08:58;;;;;;;2.67;2.00;;;21.20;1.00;;;;;;7365389;19;20038;-68
2022/08/13 07:11:32;;;;;;;2.55;1.95;;;21.10;1.00;;;;;;7362018;19;20032;-68
2022/08/13 07:14:10;;;;;;;2.75;1.98;;;21.30;1.00;;;;;;7384706;19;20019;-67
2022/08/13 07:16:44;;;;;;;;;;;21.50;1.00;;;;;;7361697;19;20011;-67
2022/08/13 07:19:15;;;;;;;3.05;1.88;;;21.50;1.00;;;;;;7361935;19;19918;-68
2022/08/13 07:21:47;;;;;;;4.97;2.08;;;21.50;1.00;;;;;;7361393;19;20007;-68
2022/08/13 07:24:23;;;;;;;3.10;2.22;;;21.70;1.00;;;;;;7361467;19;20021;-68
2022/08/13 07:27:15;;;;;;;3.88;2.15;;;21.80;1.00;;;;;;7361147;19;20011;-67
2022/08/13 07:29:49;;;;;;;2.05;1.95;;;21.80;1.00;;;;;;7361928;19;20011;-68
2022/08/13 07:32:22;;;;;;;2.10;1.90;;;21.80;1.00;;;;;;7363166;19;20043;-68
2022/08/13 07:35:09;;;;;;;3.63;1.90;;;22.00;1.00;;;;;;7387116;19;20026;-67
2022/08/13 07:37:49;;;;;;;3.85;1.98;;;22.20;1.00;;;;;;7362862;19;20017;-68
2022/08/13 07:40:22;;;;;;;3.58;2.28;;;22.20;1.00;;;;;;7360740;19;20505;-68
2022/08/13 07:43:04;;;;;;;2.13;1.90;;;22.30;1.00;;;;;;7362420;19;20079;-68
2022/08/13 07:45:39;;;;;;;2.63;2.20;;;22.50;1.00;;;;;;7361223;19;20040;-68
2022/08/13 07:48:30;;;;;;;2.55;2.28;;;22.10;1.00;;;;;;7361433;19;20010;-68
2022/08/13 07:51:21;;;;;;;4.38;2.13;;;22.40;1.00;;;;;;7363099;19;20010;-67
2022/08/13 07:53:53;;;;;;;2.53;1.95;;;22.40;1.00;;;;;;7361119;19;20030;-68
2022/08/13 07:56:28;;;;;;;2.72;1.85;;;22.70;1.00;;;;;;7362280;19;20014;-68
2022/08/13 07:59:07;;;;;;;4.18;2.13;;;22.40;1.00;;;;;;7382761;19;20161;-68
2022/08/13 08:01:46;;;;;;;2.90;2.10;;;22.60;1.00;;;;;;7361777;19;20030;-68
2022/08/13 08:04:38;;;;;;;2.55;1.95;;;22.60;1.00;;;;;;7363785;19;20003;-68
2022/08/13 08:07:14;;;;;;;2.83;2.03;;;22.60;1.00;;;;;;7357890;19;20060;-69
2022/08/13 08:09:45;;;;;;;5.35;2.30;;;23.00;1.00;;;;;;7360995;19;20014;-67
2022/08/13 08:15:01;;;;;;;2.35;2.08;;;23.20;1.00;;;;;;7360438;19;20093;-68
2022/08/13 08:17:31;;;;;;;3.35;1.98;;;23.50;1.00;;;;;;7358758;19;20025;-67
2022/08/13 08:20:24;;;;;;;3.13;2.00;;;23.50;1.00;;;;;;7360225;19;20017;-68
2022/08/13 08:23:15;;;;;;;3.15;1.85;;;23.30;1.00;;;;;;7369716;19;20446;-68
2022/08/13 08:26:06;;;;;;;4.60;2.08;;;23.00;1.00;;;;;;7382700;19;20025;-69
2022/08/13 08:28:38;;;;;;;2.10;1.90;;;23.20;1.00;;;;;;7360413;19;20081;-67
2022/08/13 08:31:14;;;;;;;8.13;2.25;;;23.30;1.00;;;;;;7359321;19;20363;-68
2022/08/13 08:34:00;;;;;;;3.20;2.00;;;23.30;1.00;;;;;;7361944;19;20011;-68
2022/08/13 08:36:31;;;;;;;8.23;2.22;;;23.70;1.00;;;;;;7359900;19;20014;-68
2022/08/13 08:44:35;;;;;;;;;;;23.70;1.00;;;;;;7360574;19;20015;-68
2022/08/13 08:47:08;;;;;;;5.07;2.22;;;23.90;1.00;;;;;;7381175;19;19926;-67
2022/08/13 08:49:39;;;;;;;2.47;2.00;;;23.80;1.00;;;;;;7359907;19;20054;-68
2022/08/13 08:52:13;;;;;;;6.47;2.13;;;23.90;1.00;;;;;;7359176;19;20037;-68
2022/08/13 08:54:49;;;;;;;2.30;2.10;;;23.90;1.00;;;;;;7359567;19;20541;-68
2022/08/13 08:57:22;;;;;;;7.03;2.15;;;23.70;1.00;;;;;;7358058;19;20011;-69
2022/08/13 08:59:55;;;;;;;2.72;1.90;;;23.50;1.00;;;;;;7361922;19;20474;-68
2022/08/13 09:02:33;;;;;;;2.42;1.92;;;23.70;1.00;;;;;;7359308;19;20025;-68
2022/08/13 09:05:05;;;;;;;2.30;2.10;;;23.90;1.00;;;;;;7380616;19;20018;-68
2022/08/13 09:07:49;;;;;;;3.80;1.85;;;24.10;1.00;;;;;;7355545;19;20018;-68
2022/08/13 09:10:23;;;;;;;5.68;2.40;;;24.40;1.00;;;;;;7358932;19;20006;-69
2022/08/13 09:13:02;;;;;;;2.00;1.80;;;24.60;1.00;;;;;;7364516;19;20018;-69
2022/08/13 09:15:34;;;;;;;3.92;2.10;;;24.40;1.00;;;;;;7365047;19;20010;-68
2022/08/13 09:18:11;;;;;;;2.78;2.17;;;24.60;1.00;;;;;;7364795;19;20094;-68
2022/08/13 09:20:47;;;;;;;10.43;2.20;;;24.70;1.00;;;;;;7365765;19;20478;-69
2022/08/13 09:23:24;;;;;;;3.65;1.80;;;24.70;1.00;;;;;;7365918;19;20018;-68
2022/08/13 09:26:15;;;;;;;2.10;1.90;;;24.70;1.00;;;;;;7372113;19;20400;-68
2022/08/13 09:28:58;;;;;;;4.60;1.90;;;24.80;1.00;;;;;;7389146;19;20587;-68
2022/08/13 09:31:29;;;;;;;2.80;1.95;;;25.00;1.00;;;;;;7365955;19;20014;-68
2022/08/13 09:34:22;;;;;;;2.13;1.60;;;24.90;1.00;;;;;;7367792;19;20010;-68
2022/08/13 09:36:57;;;;;;;4.88;2.45;;;25.40;1.00;;;;;;7365282;19;20011;-68
2022/08/13 09:39:34;;;;;;;2.17;1.98;;;25.40;1.00;;;;;;7366082;19;20011;-66
2022/08/13 09:42:16;;;;;;;2.30;1.73;;;25.80;1.00;;;;;;7366273;19;20015;-68
2022/08/13 09:44:56;;;;;;;1.95;1.70;;;25.70;1.00;;;;;;7366288;19;20029;-68
2022/08/13 09:47:27;;;;;;;2.92;1.83;;;25.90;1.00;;;;;;7364964;19;20090;-67
2022/08/13 09:50:21;;;;;;;4.25;1.90;;;25.80;1.00;;;;;;7369154;19;20029;-69
2022/08/13 09:52:52;;;;;;;3.90;1.60;;;25.50;1.00;;;;;;7385338;19;20025;-69
2022/08/13 09:55:23;;;;;;;3.13;1.65;;;25.80;1.00;;;;;;7367351;19;20011;-68
2022/08/13 09:58:13;;;;;;;3.05;1.77;;;25.70;1.00;;;;;;7364702;19;20021;-69
2022/08/13 10:01:04;;;;;;;2.28;1.42;;;25.70;1.00;;;;;;7364781;19;20013;-67
2022/08/13 10:03:38;;;;;;;2.25;1.55;;;25.80;1.00;;;;;;7364710;19;20089;-68
2022/08/13 10:06:13;;;;;;;6.03;1.45;;;25.80;1.00;;;;;;7363618;19;20010;-68
2022/08/13 10:08:45;;;;;;;2.55;1.73;;;26.00;1.00;;;;;;7365025;19;20012;-69
2022/08/13 10:11:16;;;;;;;3.67;1.55;;;26.00;1.00;;;;;;7364440;19;20687;-68
2022/08/13 10:13:54;;;;;;;3.47;1.88;;;26.10;1.00;;;;;;7383667;19;20014;-68
2022/08/13 10:16:24;;;;;;;6.32;1.60;;;26.30;1.00;;;;;;7362409;19;20041;-69
2022/08/13 10:18:57;;;;;;;2.50;1.60;;;26.40;1.00;;;;;;7364089;19;20025;-69
2022/08/13 10:21:30;;;;;;;1.90;1.30;;;26.60;1.00;;;;;;7363769;19;20010;-68
2022/08/13 10:24:09;;;;;;;1.80;1.70;;;26.30;1.00;;;;;;7362007;19;20017;-69
2022/08/13 10:26:42;;;;;;;5.50;1.83;;;26.00;1.00;;;;;;7362361;19;20044;-69
2022/08/13 10:29:18;;;;;;;3.15;1.77;;;25.90;1.00;;;;;;7363856;19;20018;-70
2022/08/13 10:32:09;;;;;;;3.97;1.55;;;25.90;1.00;;;;;;7387430;19;20017;-69
2022/08/13 10:34:42;;;;;;;4.83;1.60;;;26.10;1.00;;;;;;7366715;19;20021;-68
2022/08/13 10:37:32;;;;;;;1.60;1.50;;;26.10;1.00;;;;;;7364219;19;20010;-69
2022/08/13 10:40:24;;;;;;;4.18;1.63;;;26.10;1.00;;;;;;7362949;19;20118;-67
2022/08/13 10:43:07;;;;;;;1.60;1.45;;;26.20;1.00;;;;;;7362838;19;20026;-68
2022/08/13 10:45:52;;;;;;;1.85;1.35;;;26.10;1.00;;;;;;7362854;19;20078;-69
2022/08/13 10:48:23;;;;;;;5.80;1.83;;;26.40;1.00;;;;;;7365437;19;20627;-68
2022/08/13 10:50:54;;;;;;;3.13;1.40;;;26.30;1.00;;;;;;7364389;19;20517;-68
2022/08/13 10:56:12;;;;;;;2.70;1.33;;;26.50;1.00;;;;;;7383409;19;20014;-68
2022/08/13 10:58:47;;;;;;;2.13;1.23;;;26.40;1.00;;;;;;7362357;19;20046;-68
2022/08/13 11:01:24;;;;;;;2.17;1.65;;;26.30;1.00;;;;;;7362985;19;20108;-69
2022/08/13 11:03:56;;;;;;;4.30;1.50;;;26.10;1.00;;;;;;7362610;19;20014;-68
2022/08/13 11:06:34;;;;;;;3.97;1.23;;;26.30;1.00;;;;;;7361409;19;20014;-69
2022/08/13 11:09:10;;;;;;;4.28;1.45;;;26.20;1.00;;;;;;7362686;19;20119;-68
2022/08/13 11:12:00;;;;;;;3.15;1.52;;;26.30;1.00;;;;;;7363549;19;20026;-68
2022/08/13 11:14:32;;;;;;;1.45;1.35;;;26.50;1.00;;;;;;7361236;19;20015;-67
2022/08/13 11:17:09;;;;;;;2.42;1.52;;;26.70;1.00;;;;;;7382300;19;20133;-68
2022/08/13 11:20:04;;;;;;;2.67;1.50;;;26.90;1.00;;;;;;7362362;19;20017;-69
2022/08/13 11:22:37;;;;;;;2.55;1.50;;;27.20;1.00;;;;;;7361900;19;20826;-68
2022/08/13 11:25:15;;;;;;;2.55;1.60;;;27.00;1.00;;;;;;7361972;19;20015;-69
2022/08/13 11:28:05;;;;;;;5.95;1.45;;;27.10;1.00;;;;;;7361483;19;20010;-69
2022/08/13 11:30:35;;;;;;;2.97;1.58;;;27.40;1.00;;;;;;7362712;19;20038;-69
2022/08/13 11:33:07;;;;;;;2.08;1.10;;;27.60;1.00;;;;;;7363201;19;20046;-69
2022/08/13 11:35:43;;;;;;;7.05;1.75;;;27.60;1.00;;;;;;7361413;19;20014;-69
2022/08/13 11:38:20;;;;;;;1.55;1.23;;;27.50;1.00;;;;;;7364468;19;20048;-67
2022/08/13 11:40:55;;;;;;;1.50;1.33;;;27.20;1.00;;;;;;7385899;19;20010;-69
2022/08/13 11:43:28;;;;;;;1.70;1.40;;;27.20;1.00;;;;;;7360818;19;20015;-68
2022/08/13 11:46:18;;;;;;;2.35;1.50;;;27.30;1.00;;;;;;7360354;19;20014;-69
2022/08/13 11:48:51;;;;;;;4.03;1.55;;;27.60;1.00;;;;;;7363625;19;20009;-69
2022/08/13 11:51:38;;;;;;;4.75;1.60;;;27.70;1.00;;;;;;7361653;19;20010;-67
2022/08/13 11:54:21;;;;;;;2.78;1.30;;;27.70;1.00;;;;;;7361088;19;20014;-69
2022/08/13 11:57:06;;;;;;;2.60;1.67;;;27.80;1.00;;;;;;7360154;19;20015;-68
2022/08/13 11:59:42;;;;;;;1.60;1.40;;;27.60;1.00;;;;;;7360977;19;20010;-68
2022/08/13 12:02:19;;;;;;;1.27;1.17;;;27.70;1.00;;;;;;7361282;19;20017;-68
2022/08/13 12:05:01;;;;;;;3.05;1.38;;;27.70;1.00;;;;;;7382836;19;20082;-67
2022/08/13 12:07:34;;;;;;;;;;;28.10;1.00;;;;;;7359196;19;20015;-68
2022/08/13 12:10:18;;;;;;;5.10;1.60;;;28.30;1.00;;;;;;7360901;19;20006;-68
2022/08/13 12:13:10;;;;;;;1.65;1.40;;;28.20;1.00;;;;;;7360634;19;20106;-68
2022/08/13 12:15:40;;;;;;;1.40;1.30;;;27.80;1.00;;;;;;7360831;19;20364;-67
2022/08/13 12:18:30;;;;;;;1.95;1.38;;;27.80;1.00;;;;;;7360469;19;20078;-68
2022/08/13 12:21:00;;;;;;;1.95;1.52;;;28.10;1.00;;;;;;7360351;19;20010;-69
2022/08/13 12:23:34;;;;;;;3.25;1.58;;;28.30;1.00;;;;;;7359583;19;20020;-68
2022/08/13 12:26:08;;;;;;;3.63;1.25;;;27.90;1.00;;;;;;7380995;19;20056;-68
2022/08/13 12:28:43;;;;;;;1.30;1.20;;;27.60;1.00;;;;;;7359942;19;20032;-68
2022/08/13 12:31:17;;;;;;;1.42;1.33;;;27.80;1.00;;;;;;7360801;19;20010;-67
2022/08/13 12:33:47;;;;;;;3.35;1.70;;;28.00;1.00;;;;;;7361319;19;20026;-68
2022/08/13 12:36:16;;;;;;;2.38;1.40;;;28.30;1.00;;;;;;7360009;19;20021;-68
2022/08/13 12:38:48;;;;;;;3.13;1.40;;;28.40;1.00;;;;;;7362204;19;20038;-68
2022/08/13 12:41:30;;;;;;;2.10;1.60;;;28.00;1.00;;;;;;7361554;19;20019;-67
2022/08/13 12:44:10;;;;;;;4.40;1.95;;;28.30;1.00;;;;;;7384539;19;20022;-68
2022/08/13 12:47:00;;;;;;;3.22;1.48;;;28.70;1.00;;;;;;7363382;19;20419;-69
2022/08/13 12:49:33;;;;;;;4.00;1.20;;;28.50;1.00;;;;;;7367594;19;20075;-67
2022/08/13 12:52:26;;;;;;;1.67;1.20;;;28.60;1.00;;;;;;7367168;19;20006;-69
2022/08/13 12:55:02;;;;;;;2.55;1.20;;;28.80;1.00;;;;;;7366931;19;20011;-69
2022/08/13 12:57:47;;;;;;;2.00;1.20;;;28.70;1.00;;;;;;7365809;19;20074;-67
2022/08/13 13:00:36;;;;;;;1.45;1.10;;;28.50;1.00;;;;;;7366970;19;20011;-68
2022/08/13 13:03:07;;;;;;;2.00;1.20;;;28.70;1.00;;;;;;7366895;19;20022;-68
2022/08/13 13:05:43;;;;;;;1.92;1.23;;;28.90;1.00;;;;;;7366779;19;20031;-68
2022/08/13 13:08:20;;;;;;;4.60;1.63;;;28.70;1.00;;;;;;7388210;19;20089;-68
2022/08/13 13:11:08;;;;;;;1.30;1.20;;;28.90;1.00;;;;;;7366690;19;20021;-68
2022/08/13 13:13:43;;;;;;;2.80;1.33;;;29.30;1.00;;;;;;7365237;19;20019;-69
2022/08/13 13:16:34;;;;;;;2.53;1.25;;;29.20;1.00;;;;;;7363854;19;20026;-68
2022/08/13 13:19:07;;;;;;;1.85;1.35;;;29.40;1.00;;;;;;7366278;19;20394;-68
2022/08/13 13:21:44;;;;;;;1.27;1.10;;;29.30;1.00;;;;;;7366061;19;20612;-67
2022/08/13 13:24:15;;;;;;;1.20;1.10;;;29.70;1.00;;;;;;7366415;19;20025;-67
2022/08/13 13:26:54;;;;;;;1.20;1.10;;;29.80;1.00;;;;;;7364012;19;20791;-68
2022/08/13 13:29:35;;;;;;;2.45;1.08;;;29.70;1.00;;;;;;7365842;19;20497;-68
2022/08/13 13:32:13;;;;;;;2.47;1.20;;;29.60;1.00;;;;;;7387962;19;20037;-66
2022/08/13 13:35:03;;;;;;;1.20;1.00;;;29.70;1.00;;;;;;7367465;19;20003;-68
2022/08/13 13:37:53;;;;;;;1.70;1.17;;;29.50;1.00;;;;;;7366407;19;20017;-67
2022/08/13 13:40:38;;;;;;;3.78;1.42;;;29.80;1.00;;;;;;7368095;19;20002;-67
2022/08/13 13:43:14;;;;;;;3.78;1.40;;;29.30;1.00;;;;;;7365369;19;20018;-69
2022/08/13 13:45:54;;;;;;;2.28;1.58;;;29.30;1.00;;;;;;7364044;19;20474;-68
2022/08/13 13:48:36;;;;;;;2.55;1.20;;;29.10;1.00;;;;;;7365604;19;20019;-68
2022/08/13 13:51:09;;;;;;;2.28;1.33;;;29.10;1.00;;;;;;7367220;19;20030;-69
2022/08/13 13:53:41;;;;;;;1.85;1.38;;;29.10;1.00;;;;;;7366140;19;20021;-69
2022/08/13 13:56:31;;;;;;;1.88;1.63;;;29.20;1.00;;;;;;7363490;19;20018;-68
2022/08/13 13:59:01;;;;;;;2.10;1.33;;;29.10;1.00;;;;;;7386055;19;20042;-68
2022/08/13 14:01:34;;;;;;;2.05;1.40;;;29.40;1.00;;;;;;7364496;19;20019;-67
2022/08/13 14:04:25;;;;;;;1.88;1.55;;;29.20;1.00;;;;;;7364122;19;20010;-68
2022/08/13 14:07:04;;;;;;;1.65;1.20;;;29.70;1.00;;;;;;7362620;19;20015;-68
2022/08/13 14:09:54;;;;;;;1.98;1.48;;;29.90;1.00;;;;;;7364588;19;20022;-69
2022/08/13 14:12:31;;;;;;;1.45;1.30;;;29.50;1.00;;;;;;7365594;19;20091;-68
2022/08/13 14:15:22;;;;;;;2.72;1.08;;;29.80;1.00;;;;;;7364357;19;20480;-68
2022/08/13 14:17:54;;;;;;;3.03;1.48;;;29.80;1.00;;;;;;7364006;19;20026;-67
2022/08/13 14:20:53;;;;;;;1.50;1.40;;;29.60;1.00;;;;;;7363924;19;20633;-68
2022/08/13 14:23:27;;;;;;;3.08;1.40;;;29.50;1.00;;;;;;7364135;19;20503;-68